createdAt,value
2022-08-03T00:01:35.580Z,1.48
2022-08-03T00:04:02.206Z,1.52
2022-08-03T00:06:30.750Z,1.20
2022-08-03T00:09:00.103Z,1.77
2022-08-03T00:11:26.762Z,1.35
2022-08-03T00:13:53.416Z,1.15
2022-08-03T00:16:20.043Z,1.50
2022-08-03T00:18:49.681Z,1.23
2022-08-03T00:21:16.278Z,1.10
2022-08-03T00:23:51.286Z,1.77
2022-08-03T00:26:18.826Z,0.85
2022-08-03T00:28:45.421Z,1.33
2022-08-03T00:31:13.457Z,1.00
2022-08-03T00:33:59.971Z,1.23
2022-08-03T00:36:27.809Z,1.38
2022-08-03T00:38:54.930Z,1.35
2022-08-03T00:41:21.801Z,1.50
2022-08-03T00:43:48.670Z,1.63
2022-08-03T00:46:20.578Z,1.35
2022-08-03T00:48:50.028Z,1.45
2022-08-03T00:51:16.812Z,1.50
2022-08-03T00:53:43.689Z,1.58
2022-08-03T00:56:13.965Z,1.60
2022-08-03T00:58:40.687Z,1.80
2022-08-03T01:01:07.605Z,2.80
2022-08-03T01:03:34.549Z,1.25
2022-08-03T01:06:11.480Z,1.27
2022-08-03T01:08:48.591Z,1.75
2022-08-03T01:11:23.389Z,2.10
2022-08-03T01:14:19.282Z,1.42
2022-08-03T01:16:59.709Z,1.50
2022-08-03T01:19:41.205Z,1.45
2022-08-03T01:22:15.089Z,1.50
2022-08-03T01:24:56.915Z,1.52
2022-08-03T01:27:33.237Z,1.40
2022-08-03T01:30:07.426Z,1.33
2022-08-03T01:32:58.899Z,2.10
2022-08-03T01:35:42.392Z,1.52
2022-08-03T01:38:15.301Z,1.50
2022-08-03T01:40:44.656Z,1.65
2022-08-03T01:43:55.357Z,1.60
2022-08-03T01:46:03.674Z,1.35
2022-08-03T01:48:32.403Z,1.50
2022-08-03T01:51:00.959Z,1.20
2022-08-03T01:53:28.604Z,1.17
2022-08-03T01:55:57.472Z,1.20
2022-08-03T01:58:25.134Z,1.75
2022-08-03T02:00:53.149Z,1.05
2022-08-03T02:03:23.309Z,2.05
2022-08-03T02:05:57.263Z,1.67
2022-08-03T02:08:34.407Z,1.30
2022-08-03T02:11:02.582Z,1.52
2022-08-03T02:13:30.514Z,1.65
2022-08-03T02:15:58.159Z,1.48
2022-08-03T02:18:26.752Z,1.58
2022-08-03T02:20:54.696Z,1.23
2022-08-03T02:23:21.535Z,1.25
2022-08-03T02:26:01.862Z,1.50
2022-08-03T02:28:41.679Z,1.55
2022-08-03T02:31:15.621Z,1.60
2022-08-03T02:33:48.430Z,1.67
2022-08-03T02:36:18.283Z,1.42
2022-08-03T02:38:49.505Z,1.52
2022-08-03T02:41:21.228Z,1.80
2022-08-03T02:44:06.171Z,1.35
2022-08-03T02:46:38.561Z,1.20
2022-08-03T02:49:41.097Z,1.30
2022-08-03T02:51:54.817Z,2.28
2022-08-03T02:54:24.951Z,1.63
2022-08-03T02:56:54.073Z,2.00
2022-08-03T02:59:21.555Z,1.52
2022-08-03T03:01:49.083Z,1.38
2022-08-03T03:04:17.204Z,1.70
2022-08-03T03:06:46.973Z,1.83
2022-08-03T03:09:15.093Z,1.55
2022-08-03T03:11:42.686Z,1.42
2022-08-03T03:14:11.136Z,1.42
2022-08-03T03:16:39.470Z,1.40
2022-08-03T03:19:08.631Z,1.13
2022-08-03T03:21:37.239Z,2.13
2022-08-03T03:24:05.700Z,1.50
2022-08-03T03:26:33.344Z,1.58
2022-08-03T03:29:01.701Z,1.40
2022-08-03T03:31:28.633Z,1.52
2022-08-03T03:33:59.794Z,1.40
2022-08-03T03:36:26.420Z,1.40
2022-08-03T03:38:53.805Z,1.50
2022-08-03T03:41:20.815Z,1.45
2022-08-03T03:43:49.321Z,1.58
2022-08-03T03:46:18.447Z,1.60
2022-08-03T03:48:45.251Z,1.23
2022-08-03T03:51:12.089Z,1.60
2022-08-03T03:53:38.865Z,1.50
2022-08-03T03:56:05.576Z,1.40
2022-08-03T03:58:33.062Z,1.60
2022-08-03T04:01:00.651Z,1.35
2022-08-03T04:03:27.560Z,1.63
2022-08-03T04:06:12.639Z,1.40
2022-08-03T04:08:58.761Z,1.70
2022-08-03T04:11:47.708Z,1.58
2022-08-03T04:14:35.151Z,1.80
2022-08-03T04:17:04.905Z,1.55
2022-08-03T04:19:35.979Z,1.30
2022-08-03T04:22:07.390Z,1.58
2022-08-03T04:24:43.498Z,1.60
2022-08-03T04:27:12.909Z,1.83
2022-08-03T04:29:48.187Z,1.48
2022-08-03T04:32:17.161Z,1.60
2022-08-03T04:34:44.415Z,1.80
2022-08-03T04:37:23.243Z,1.50
2022-08-03T04:39:51.001Z,1.70
2022-08-03T04:42:21.155Z,1.55
2022-08-03T04:44:48.971Z,1.70
2022-08-03T04:47:16.466Z,1.60
2022-08-03T04:49:43.731Z,2.00
2022-08-03T04:52:10.998Z,1.38
2022-08-03T04:54:50.079Z,1.70
2022-08-03T04:57:22.191Z,1.83
2022-08-03T04:59:58.177Z,1.70
2022-08-03T05:02:28.596Z,2.38
2022-08-03T05:04:55.201Z,2.13
2022-08-03T05:07:24.992Z,2.42
2022-08-03T05:09:53.035Z,2.05
2022-08-03T05:12:32.519Z,2.10
2022-08-03T05:15:00.211Z,2.05
2022-08-03T05:17:27.102Z,2.25
2022-08-03T05:19:53.649Z,2.03
2022-08-03T05:22:21.033Z,2.58
2022-08-03T05:24:47.604Z,1.88
2022-08-03T05:27:19.313Z,2.10
2022-08-03T05:29:47.685Z,2.28
2022-08-03T05:32:14.603Z,2.30
2022-08-03T05:34:41.357Z,1.77
2022-08-03T05:37:07.973Z,2.42
2022-08-03T05:39:34.839Z,2.03
2022-08-03T05:42:02.298Z,2.22
2022-08-03T05:44:29.211Z,2.03
2022-08-03T05:46:57.812Z,2.35
2022-08-03T05:49:24.461Z,2.00
2022-08-03T05:52:00.185Z,2.10
2022-08-03T05:54:56.407Z,1.85
2022-08-03T05:57:22.314Z,2.50
2022-08-03T05:59:57.828Z,1.95
2022-08-03T06:02:27.355Z,2.35
2022-08-03T06:04:54.535Z,2.25
2022-08-03T06:07:21.235Z,2.25
2022-08-03T06:10:34.410Z,2.30
2022-08-03T06:12:37.300Z,2.00
2022-08-03T06:15:04.922Z,2.00
2022-08-03T06:17:37.173Z,1.75
2022-08-03T06:20:05.601Z,1.75
2022-08-03T06:22:32.180Z,1.90
2022-08-03T06:24:58.998Z,1.95
2022-08-03T06:27:37.276Z,1.63
2022-08-03T06:30:05.235Z,2.25
2022-08-03T06:32:31.843Z,1.98
2022-08-03T06:34:58.405Z,2.15
2022-08-03T06:37:25.082Z,1.90
2022-08-03T06:39:51.643Z,1.45
2022-08-03T06:42:18.577Z,1.33
2022-08-03T06:44:47.267Z,1.60
2022-08-03T06:47:13.830Z,1.65
2022-08-03T06:49:41.637Z,1.80
2022-08-03T06:52:08.289Z,1.83
2022-08-03T06:54:35.970Z,1.30
2022-08-03T06:57:03.747Z,1.75
2022-08-03T07:00:10.362Z,1.52
2022-08-03T07:02:19.856Z,1.45
2022-08-03T07:04:48.358Z,1.40
2022-08-03T07:07:15.110Z,1.58
2022-08-03T07:09:41.811Z,1.10
2022-08-03T07:12:08.632Z,1.48
2022-08-03T07:14:35.213Z,1.52
2022-08-03T07:17:01.762Z,1.40
2022-08-03T07:19:37.913Z,1.52
2022-08-03T07:22:04.815Z,1.65
2022-08-03T07:24:31.409Z,1.58
2022-08-03T07:26:58.032Z,1.60
2022-08-03T07:29:25.127Z,1.60
2022-08-03T07:31:51.712Z,1.80
2022-08-03T07:34:18.402Z,1.95
2022-08-03T07:36:45.033Z,1.83
2022-08-03T07:39:16.462Z,1.90
2022-08-03T07:41:45.845Z,2.05
2022-08-03T07:44:12.981Z,1.92
2022-08-03T07:46:39.870Z,1.75
2022-08-03T07:49:06.512Z,1.40
2022-08-03T07:51:33.169Z,1.50
2022-08-03T07:54:00.969Z,1.88
2022-08-03T07:56:28.361Z,1.27
2022-08-03T07:58:55.899Z,1.58
2022-08-03T08:01:23.281Z,1.67
2022-08-03T08:03:52.887Z,1.10
2022-08-03T08:06:20.616Z,1.08
2022-08-03T08:08:47.386Z,1.38
2022-08-03T08:11:14.062Z,1.27
2022-08-03T08:13:40.655Z,1.60
2022-08-03T08:16:07.359Z,5.55
2022-08-03T08:18:34.570Z,1.10
2022-08-03T08:21:03.277Z,1.20
2022-08-03T08:23:43.423Z,1.38
2022-08-03T08:26:11.833Z,1.25
2022-08-03T08:28:38.443Z,1.08
2022-08-03T08:31:05.369Z,1.60
2022-08-03T08:33:54.238Z,1.38
2022-08-03T08:36:19.245Z,1.45
2022-08-03T08:38:45.922Z,1.10
2022-08-03T08:41:14.543Z,1.15
2022-08-03T08:43:42.493Z,1.38
2022-08-03T08:46:23.163Z,1.33
2022-08-03T08:48:51.843Z,1.40
2022-08-03T08:51:20.532Z,1.20
2022-08-03T08:53:51.604Z,1.20
2022-08-03T08:56:20.503Z,1.40
2022-08-03T08:58:58.158Z,1.50
2022-08-03T09:01:24.805Z,0.98
2022-08-03T09:03:53.464Z,1.33
2022-08-03T09:06:21.174Z,1.13
2022-08-03T09:08:47.835Z,1.20
2022-08-03T09:11:14.412Z,1.30
2022-08-03T09:13:41.603Z,1.15
2022-08-03T09:16:16.277Z,1.52
2022-08-03T09:18:45.060Z,1.15
2022-08-03T09:21:33.646Z,1.35
2022-08-03T09:24:05.337Z,1.13
2022-08-03T09:26:38.298Z,1.27
2022-08-03T09:29:14.025Z,1.05
2022-08-03T09:31:46.490Z,1.30
2022-08-03T09:34:15.386Z,1.00
2022-08-03T09:36:46.771Z,1.10
2022-08-03T09:39:40.639Z,1.48
2022-08-03T09:42:23.737Z,1.10
2022-08-03T09:44:52.008Z,1.48
2022-08-03T09:47:36.705Z,1.10
2022-08-03T09:50:08.561Z,1.05
2022-08-03T09:52:49.630Z,1.30
2022-08-03T09:55:23.697Z,1.13
2022-08-03T09:58:10.577Z,1.55
2022-08-03T10:00:54.137Z,1.35
2022-08-03T10:03:21.376Z,1.30
2022-08-03T10:05:47.933Z,1.08
2022-08-03T10:08:19.163Z,1.30
2022-08-03T10:10:47.987Z,0.80
2022-08-03T10:13:17.353Z,1.10
2022-08-03T10:16:22.646Z,1.27
2022-08-03T10:18:31.834Z,1.58
2022-08-03T10:21:07.902Z,1.10
2022-08-03T10:23:35.473Z,1.10
2022-08-03T10:26:04.836Z,1.33
2022-08-03T10:28:42.833Z,1.98
2022-08-03T10:31:13.175Z,1.10
2022-08-03T10:33:51.180Z,1.60
2022-08-03T10:36:24.015Z,1.20
2022-08-03T10:38:53.242Z,1.50
2022-08-03T10:41:21.869Z,1.40
2022-08-03T10:44:17.624Z,1.35
2022-08-03T10:46:45.436Z,1.42
2022-08-03T10:49:32.814Z,1.60
2022-08-03T10:52:08.411Z,2.22
2022-08-03T10:55:00.747Z,1.80
2022-08-03T10:57:50.089Z,1.60
2022-08-03T11:00:30.536Z,1.50
2022-08-03T11:03:08.720Z,1.45
2022-08-03T11:05:42.495Z,1.70
2022-08-03T11:08:24.347Z,1.23
2022-08-03T11:10:53.903Z,1.70
2022-08-03T11:13:23.010Z,1.70
2022-08-03T11:15:53.539Z,1.17
2022-08-03T11:18:27.174Z,1.50
2022-08-03T11:20:56.702Z,1.25
2022-08-03T11:24:05.275Z,1.30
2022-08-03T11:26:28.442Z,1.55
2022-08-03T11:29:28.117Z,1.50
2022-08-03T11:31:54.835Z,1.10
2022-08-03T11:34:21.419Z,1.08
2022-08-03T11:37:21.538Z,1.20
2022-08-03T11:39:50.979Z,1.25
2022-08-03T11:42:23.454Z,1.23
2022-08-03T11:44:55.663Z,1.17
2022-08-03T11:47:24.104Z,1.17
2022-08-03T11:49:53.719Z,1.63
2022-08-03T11:52:26.721Z,1.33
2022-08-03T11:54:57.126Z,1.08
2022-08-03T11:59:10.883Z,1.33
2022-08-03T12:00:27.456Z,1.50
2022-08-03T12:03:12.313Z,1.60
2022-08-03T12:05:52.990Z,1.50
2022-08-03T12:08:40.903Z,1.33
2022-08-03T12:11:09.250Z,1.38
2022-08-03T12:14:05.773Z,1.52
2022-08-03T12:16:37.932Z,1.50
2022-08-03T12:19:06.946Z,1.42
2022-08-03T12:21:33.770Z,1.35
2022-08-03T12:24:05.602Z,1.50
2022-08-03T12:26:52.235Z,1.20
2022-08-03T12:29:26.671Z,1.13
2022-08-03T12:31:53.392Z,1.27
2022-08-03T12:34:19.947Z,1.20
2022-08-03T12:36:56.278Z,1.60
2022-08-03T12:39:25.373Z,1.35
2022-08-03T12:41:56.710Z,1.50
2022-08-03T12:44:35.134Z,1.00
2022-08-03T12:47:03.220Z,1.30
2022-08-03T12:49:53.783Z,1.10
2022-08-03T12:52:23.084Z,1.27
2022-08-03T12:54:57.444Z,1.40
2022-08-03T12:57:24.778Z,1.38
2022-08-03T12:59:55.602Z,1.40
2022-08-03T13:02:27.314Z,1.38
2022-08-03T13:04:54.816Z,1.33
2022-08-03T13:07:22.760Z,1.20
2022-08-03T13:09:53.196Z,1.20
2022-08-03T13:12:25.151Z,1.00
2022-08-03T13:14:55.026Z,1.15
2022-08-03T13:17:21.917Z,1.48
2022-08-03T13:19:48.933Z,1.60
2022-08-03T13:22:20.789Z,1.20
2022-08-03T13:24:49.522Z,1.58
2022-08-03T13:28:01.404Z,1.45
2022-08-03T13:30:04.680Z,1.40
2022-08-03T13:32:31.336Z,1.67
2022-08-03T13:34:57.995Z,1.35
2022-08-03T13:37:25.173Z,1.40
2022-08-03T13:39:58.711Z,1.25
2022-08-03T13:42:34.257Z,1.48
2022-08-03T13:45:02.069Z,1.38
2022-08-03T13:47:28.756Z,1.40
2022-08-03T13:50:01.468Z,1.50
2022-08-03T13:52:34.251Z,1.45
2022-08-03T13:55:02.912Z,1.52
2022-08-03T13:58:03.079Z,1.60
2022-08-03T14:00:28.121Z,1.50
2022-08-03T14:03:02.838Z,1.30
2022-08-03T14:05:32.106Z,1.13
2022-08-03T14:08:04.631Z,1.42
2022-08-03T14:10:38.839Z,1.50
2022-08-03T14:13:05.978Z,1.55
2022-08-03T14:15:37.255Z,2.33
2022-08-03T14:18:05.525Z,1.50
2022-08-03T14:20:37.722Z,1.85
2022-08-03T14:23:07.323Z,1.20
2022-08-03T14:25:49.974Z,1.80
2022-08-03T14:28:17.876Z,1.83
2022-08-03T14:30:44.499Z,1.63
2022-08-03T14:33:11.113Z,4.13
2022-08-03T14:35:37.761Z,3.15
2022-08-03T14:38:04.322Z,1.33
2022-08-03T14:40:30.930Z,1.30
2022-08-03T14:42:57.569Z,1.30
2022-08-03T14:45:24.253Z,1.70
2022-08-03T14:50:32.449Z,1.23
2022-08-03T14:50:44.200Z,1.42
2022-08-03T14:53:13.735Z,1.33
2022-08-03T14:55:49.996Z,1.80
2022-08-03T14:58:21.132Z,1.30
2022-08-03T15:00:49.512Z,1.95
2022-08-03T15:03:17.621Z,1.55
2022-08-03T15:05:44.709Z,1.98
2022-08-03T15:08:11.406Z,2.00
2022-08-03T15:10:44.383Z,1.48
2022-08-03T15:13:13.089Z,1.77
2022-08-03T15:15:39.932Z,1.85
2022-08-03T15:18:06.586Z,1.50
2022-08-03T15:20:43.741Z,1.67
2022-08-03T15:23:10.906Z,1.88
2022-08-03T15:26:03.893Z,1.90
2022-08-03T15:28:24.030Z,2.05
2022-08-03T15:30:52.688Z,2.05
2022-08-03T15:33:19.524Z,2.30
2022-08-03T15:35:47.413Z,2.10
2022-08-03T15:38:14.078Z,1.83
2022-08-03T15:40:40.822Z,2.25
2022-08-03T15:43:07.580Z,2.20
2022-08-03T15:45:36.176Z,2.70
2022-08-03T15:48:04.805Z,1.80
2022-08-03T15:50:31.469Z,2.35
2022-08-03T15:52:58.086Z,2.33
2022-08-03T15:55:24.779Z,2.38
2022-08-03T15:59:03.616Z,2.10
2022-08-03T16:00:38.366Z,2.13
2022-08-03T16:03:05.467Z,2.63
2022-08-03T16:05:32.387Z,1.98
2022-08-03T16:08:03.658Z,2.40
2022-08-03T16:10:32.233Z,2.35
2022-08-03T16:13:00.216Z,2.55
2022-08-03T16:15:27.459Z,2.40
2022-08-03T16:17:54.371Z,2.00
2022-08-03T16:20:31.234Z,2.25
2022-08-03T16:23:11.434Z,2.20
2022-08-03T16:25:40.281Z,2.17
2022-08-03T16:28:13.083Z,2.58
2022-08-03T16:30:42.506Z,1.98
2022-08-03T16:33:09.436Z,2.40
2022-08-03T16:35:36.133Z,2.45
2022-08-03T16:38:09.216Z,2.42
2022-08-03T16:40:36.893Z,2.05
2022-08-03T16:43:18.267Z,2.90
2022-08-03T16:45:46.479Z,2.63
2022-08-03T16:48:13.236Z,2.80
2022-08-03T16:50:39.884Z,3.08
2022-08-03T16:53:09.297Z,2.65
2022-08-03T16:55:53.349Z,3.30
2022-08-03T16:58:34.607Z,2.63
2022-08-03T17:01:24.026Z,3.38
2022-08-03T17:04:03.051Z,3.22
2022-08-03T17:06:35.334Z,2.95
2022-08-03T17:09:08.769Z,3.17
2022-08-03T17:11:38.045Z,3.20
2022-08-03T17:14:09.549Z,3.38
2022-08-03T17:16:38.458Z,3.10
2022-08-03T17:19:07.021Z,2.92
2022-08-03T17:21:39.432Z,3.53
2022-08-03T17:24:20.867Z,3.20
2022-08-03T17:26:51.056Z,2.80
2022-08-03T17:29:23.067Z,3.10
2022-08-03T17:31:56.862Z,3.42
2022-08-03T17:34:26.566Z,2.83
2022-08-03T17:37:27.171Z,3.35
2022-08-03T17:39:58.278Z,3.35
2022-08-03T17:42:30.441Z,3.00
2022-08-03T17:45:01.773Z,3.20
2022-08-03T17:47:42.073Z,3.78
2022-08-03T17:50:24.518Z,3.45
2022-08-03T17:53:07.937Z,3.92
2022-08-03T17:55:54.824Z,3.42
2022-08-03T17:58:55.105Z,3.80
2022-08-03T18:04:29.660Z,4.05
2022-08-03T18:06:59.986Z,4.03
2022-08-03T18:10:06.521Z,4.35
2022-08-03T18:12:47.238Z,4.35
2022-08-03T18:15:25.270Z,4.90
2022-08-03T18:17:58.182Z,4.47
2022-08-03T18:20:32.890Z,4.55
2022-08-03T18:23:05.933Z,4.40
2022-08-03T18:25:38.273Z,4.75
2022-08-03T18:28:13.975Z,4.57
2022-08-03T18:34:16.243Z,4.68
2022-08-03T18:36:22.143Z,4.70
2022-08-03T18:38:59.145Z,4.70
2022-08-03T18:41:33.410Z,5.07
2022-08-03T18:47:16.094Z,4.90
2022-08-03T18:50:20.955Z,4.68
2022-08-03T18:53:16.256Z,4.82
2022-08-03T18:56:02.690Z,5.00
2022-08-03T18:58:45.528Z,5.80
2022-08-03T19:02:00.208Z,5.75
2022-08-03T19:04:41.199Z,5.50
2022-08-03T19:07:17.620Z,5.03
2022-08-03T19:09:57.291Z,5.47
2022-08-03T19:15:13.480Z,5.07
2022-08-03T19:17:50.313Z,5.82
2022-08-03T19:20:24.969Z,5.32
2022-08-03T19:22:53.481Z,5.47
2022-08-03T19:25:20.521Z,5.97
2022-08-03T19:28:03.744Z,5.00
2022-08-03T19:30:40.658Z,5.00
2022-08-03T19:33:15.476Z,5.10
2022-08-03T19:35:46.961Z,4.78
2022-08-03T19:41:15.122Z,4.93
2022-08-03T19:43:53.986Z,4.80
2022-08-03T19:46:30.989Z,4.78
2022-08-03T19:54:54.124Z,4.18
2022-08-03T19:57:24.707Z,4.88
2022-08-03T19:59:53.361Z,4.43
2022-08-03T20:02:26.497Z,4.50
2022-08-03T20:04:55.980Z,4.43
2022-08-03T20:07:23.014Z,4.55
2022-08-03T20:09:56.187Z,4.82
2022-08-03T20:12:27.722Z,5.13
2022-08-03T20:14:56.616Z,4.72
2022-08-03T20:17:23.438Z,4.35
2022-08-03T20:20:10.285Z,4.20
2022-08-03T20:22:41.487Z,4.15
2022-08-03T20:25:10.693Z,4.60
2022-08-03T20:28:07.137Z,4.30
2022-08-03T20:30:33.816Z,4.90
2022-08-03T20:33:00.463Z,4.03
2022-08-03T20:35:28.926Z,4.22
2022-08-03T20:37:55.990Z,3.92
2022-08-03T20:40:27.348Z,4.13
2022-08-03T20:42:55.474Z,4.55
2022-08-03T20:45:59.826Z,4.75
2022-08-03T20:48:10.195Z,4.20
2022-08-03T20:50:38.725Z,4.57
2022-08-03T20:53:07.560Z,4.53
2022-08-03T20:55:47.154Z,4.38
2022-08-03T20:58:25.969Z,4.38
2022-08-03T21:00:53.487Z,4.60
2022-08-03T21:03:20.180Z,4.45
2022-08-03T21:05:51.821Z,3.65
2022-08-03T21:08:22.404Z,4.25
2022-08-03T21:10:50.059Z,4.45
2022-08-03T21:13:02.595Z,4.80
2022-08-03T21:13:04.438Z,4.30
2022-08-03T21:13:09.823Z,4.90
2022-08-03T21:13:11.013Z,4.32
2022-08-03T21:13:28.580Z,4.25
2022-08-03T21:16:06.046Z,4.00
2022-08-03T21:19:03.001Z,4.60
2022-08-03T21:21:32.738Z,4.15
2022-08-03T21:24:00.546Z,4.88
2022-08-03T21:26:31.932Z,4.90
2022-08-03T21:28:58.550Z,4.70
2022-08-03T21:31:26.693Z,4.82
2022-08-03T21:33:55.903Z,4.20
2022-08-03T21:36:22.719Z,4.50
2022-08-03T21:38:56.477Z,4.65
2022-08-03T21:41:28.983Z,4.15
2022-08-03T21:43:56.148Z,4.57
2022-08-03T21:46:23.599Z,4.72
2022-08-03T21:50:04.389Z,4.20
2022-08-03T21:51:49.509Z,4.15
2022-08-03T21:54:17.837Z,4.40
2022-08-03T21:56:47.826Z,4.57
2022-08-03T21:59:19.739Z,4.85
2022-08-03T22:01:49.320Z,4.53
2022-08-03T22:04:42.651Z,4.53
2022-08-03T22:07:08.330Z,4.43
2022-08-03T22:09:35.896Z,3.78
2022-08-03T22:12:03.110Z,4.05
2022-08-03T22:14:32.483Z,3.97
2022-08-03T22:16:59.967Z,4.03
2022-08-03T22:19:26.606Z,3.80
2022-08-03T22:21:54.468Z,4.07
2022-08-03T22:24:25.370Z,4.22
2022-08-03T22:27:10.519Z,3.20
2022-08-03T22:29:39.971Z,3.88
2022-08-03T22:32:06.991Z,3.88
2022-08-03T22:34:34.352Z,3.28
2022-08-03T22:37:03.376Z,3.80
2022-08-03T22:39:30.683Z,3.50
2022-08-03T22:41:59.080Z,4.07
2022-08-03T22:44:29.604Z,3.42
2022-08-03T22:46:56.930Z,3.53
2022-08-03T22:49:24.237Z,3.60
2022-08-03T22:51:52.703Z,3.42
2022-08-03T22:54:19.504Z,3.40
2022-08-03T22:56:46.946Z,3.22
2022-08-03T22:59:41.350Z,4.25
2022-08-03T23:02:20.191Z,3.33
2022-08-03T23:04:55.038Z,3.65
2022-08-03T23:07:34.372Z,3.17
2022-08-03T23:10:03.817Z,3.83
2022-08-03T23:12:34.003Z,4.45
2022-08-03T23:15:05.369Z,4.07
2022-08-03T23:17:32.509Z,3.42
2022-08-03T23:20:08.112Z,3.35
2022-08-03T23:22:38.401Z,3.75
2022-08-03T23:25:10.447Z,3.47
2022-08-03T23:27:41.267Z,3.97
2022-08-03T23:30:10.121Z,3.50
2022-08-03T23:32:37.000Z,3.97
2022-08-03T23:35:24.855Z,3.17
2022-08-03T23:38:22.659Z,3.00
2022-08-03T23:40:51.248Z,3.58
2022-08-03T23:43:51.264Z,3.28
2022-08-03T23:46:08.775Z,2.88
2022-08-03T23:48:35.379Z,3.72
2022-08-03T23:51:10.289Z,2.83
2022-08-03T23:53:55.831Z,2.75
2022-08-03T23:56:54.030Z,2.92
2022-08-03T23:59:26.325Z,3.10
